sensor_id;sensor_type;location;lat;lon;timestamp;temperature;humidity
46652;DHT22;32377;52.182;5.398;2023-12-22T00:01:29;7.90;99.90
46652;DHT22;32377;52.182;5.398;2023-12-22T00:03:55;7.70;99.90
46652;DHT22;32377;52.182;5.398;2023-12-22T00:06:20;7.60;99.90
46652;DHT22;32377;52.182;5.398;2023-12-22T00:08:46;7.20;14.70
46652;DHT22;32377;52.182;5.398;2023-12-22T00:11:12;6.60;99.90
46652;DHT22;32377;52.182;5.398;2023-12-22T00:13:37;6.40;99.90
46652;DHT22;32377;52.182;5.398;2023-12-22T00:16:03;6.30;99.90
46652;DHT22;32377;52.182;5.398;2023-12-22T00:18:29;6.30;99.90
46652;DHT22;32377;52.182;5.398;2023-12-22T00:20:54;6.30;99.90
46652;DHT22;32377;52.182;5.398;2023-12-22T00:23:20;6.40;99.90
46652;DHT22;32377;52.182;5.398;2023-12-22T00:25:45;6.40;99.90
46652;DHT22;32377;52.182;5.398;2023-12-22T00:28:11;6.40;99.90
46652;DHT22;32377;52.182;5.398;2023-12-22T00:30:37;6.50;99.90
46652;DHT22;32377;52.182;5.398;2023-12-22T00:33:02;6.50;99.90
46652;DHT22;32377;52.182;5.398;2023-12-22T00:35:28;6.50;99.90
46652;DHT22;32377;52.182;5.398;2023-12-22T00:37:53;6.40;99.90
46652;DHT22;32377;52.182;5.398;2023-12-22T00:40:19;6.50;99.90
46652;DHT22;32377;52.182;5.398;2023-12-22T00:42:45;6.50;99.90
46652;DHT22;32377;52.182;5.398;2023-12-22T00:45:10;6.50;99.90
46652;DHT22;32377;52.182;5.398;2023-12-22T00:47:36;6.60;99.90
46652;DHT22;32377;52.182;5.398;2023-12-22T00:50:02;6.70;99.90
46652;DHT22;32377;52.182;5.398;2023-12-22T00:52:29;6.70;99.90
46652;DHT22;32377;52.182;5.398;2023-12-22T00:54:55;6.70;95.50
46652;DHT22;32377;52.182;5.398;2023-12-22T00:57:21;6.70;52.50
46652;DHT22;32377;52.182;5.398;2023-12-22T00:59:46;6.70;5.30
46652;DHT22;32377;52.182;5.398;2023-12-22T01:02:17;6.80;1.00
46652;DHT22;32377;52.182;5.398;2023-12-22T01:04:43;6.80;1.00
46652;DHT22;32377;52.182;5.398;2023-12-22T01:07:09;6.80;1.00
46652;DHT22;32377;52.182;5.398;2023-12-22T01:09:35;6.80;1.00
46652;DHT22;32377;52.182;5.398;2023-12-22T01:12:03;6.80;1.00
46652;DHT22;32377;52.182;5.398;2023-12-22T01:14:29;6.90;1.00
46652;DHT22;32377;52.182;5.398;2023-12-22T01:16:55;6.90;99.90
46652;DHT22;32377;52.182;5.398;2023-12-22T01:19:20;7.00;99.90
46652;DHT22;32377;52.182;5.398;2023-12-22T01:21:46;7.00;99.90
46652;DHT22;32377;52.182;5.398;2023-12-22T01:24:12;6.90;1.00
46652;DHT22;32377;52.182;5.398;2023-12-22T01:26:37;6.90;1.00
46652;DHT22;32377;52.182;5.398;2023-12-22T01:29:03;7.00;99.90
46652;DHT22;32377;52.182;5.398;2023-12-22T01:31:29;6.90;99.90
46652;DHT22;32377;52.182;5.398;2023-12-22T01:33:54;6.90;99.90
46652;DHT22;32377;52.182;5.398;2023-12-22T01:36:20;6.80;99.90
46652;DHT22;32377;52.182;5.398;2023-12-22T01:38:46;6.80;99.90
46652;DHT22;32377;52.182;5.398;2023-12-22T01:41:11;6.80;1.00
46652;DHT22;32377;52.182;5.398;2023-12-22T01:43:37;6.80;1.00
46652;DHT22;32377;52.182;5.398;2023-12-22T01:46:03;6.80;1.00
46652;DHT22;32377;52.182;5.398;2023-12-22T01:48:29;6.80;1.00
46652;DHT22;32377;52.182;5.398;2023-12-22T01:50:56;6.80;1.00
46652;DHT22;32377;52.182;5.398;2023-12-22T01:53:24;6.80;99.90
46652;DHT22;32377;52.182;5.398;2023-12-22T01:55:51;6.80;1.00
46652;DHT22;32377;52.182;5.398;2023-12-22T01:58:18;6.80;99.90
46652;DHT22;32377;52.182;5.398;2023-12-22T02:00:44;6.80;1.00
46652;DHT22;32377;52.182;5.398;2023-12-22T02:03:10;6.70;1.00
46652;DHT22;32377;52.182;5.398;2023-12-22T02:05:36;6.70;1.00
46652;DHT22;32377;52.182;5.398;2023-12-22T02:08:02;6.80;1.00
46652;DHT22;32377;52.182;5.398;2023-12-22T02:10:28;6.80;1.00
46652;DHT22;32377;52.182;5.398;2023-12-22T02:12:53;6.80;1.00
46652;DHT22;32377;52.182;5.398;2023-12-22T02:15:19;6.80;7.40
46652;DHT22;32377;52.182;5.398;2023-12-22T02:20:15;7.00;99.90
46652;DHT22;32377;52.182;5.398;2023-12-22T02:22:41;7.00;99.90
46652;DHT22;32377;52.182;5.398;2023-12-22T02:25:07;7.00;99.90
46652;DHT22;32377;52.182;5.398;2023-12-22T02:27:53;7.00;99.90
46652;DHT22;32377;52.182;5.398;2023-12-22T02:30:29;7.00;99.90
46652;DHT22;32377;52.182;5.398;2023-12-22T02:32:59;6.90;99.90
46652;DHT22;32377;52.182;5.398;2023-12-22T02:35:26;6.90;99.90
46652;DHT22;32377;52.182;5.398;2023-12-22T02:37:54;6.90;99.90
46652;DHT22;32377;52.182;5.398;2023-12-22T02:40:22;6.90;99.90
46652;DHT22;32377;52.182;5.398;2023-12-22T02:42:49;7.00;99.90
46652;DHT22;32377;52.182;5.398;2023-12-22T02:45:16;7.00;99.90
46652;DHT22;32377;52.182;5.398;2023-12-22T02:47:42;6.90;99.90
46652;DHT22;32377;52.182;5.398;2023-12-22T02:50:08;7.00;99.90
46652;DHT22;32377;52.182;5.398;2023-12-22T02:52:34;7.20;99.90
46652;DHT22;32377;52.182;5.398;2023-12-22T02:55:01;7.40;1.00
46652;DHT22;32377;52.182;5.398;2023-12-22T02:57:26;7.60;99.90
46652;DHT22;32377;52.182;5.398;2023-12-22T02:59:52;7.90;99.90
46652;DHT22;32377;52.182;5.398;2023-12-22T03:02:18;8.00;99.90
46652;DHT22;32377;52.182;5.398;2023-12-22T03:04:43;8.10;99.90
46652;DHT22;32377;52.182;5.398;2023-12-22T03:07:11;8.20;15.10
46652;DHT22;32377;52.182;5.398;2023-12-22T03:09:36;8.30;1.00
46652;DHT22;32377;52.182;5.398;2023-12-22T03:12:02;8.40;1.00
46652;DHT22;32377;52.182;5.398;2023-12-22T03:14:31;8.40;1.00
46652;DHT22;32377;52.182;5.398;2023-12-22T03:17:00;8.10;99.90
46652;DHT22;32377;52.182;5.398;2023-12-22T03:19:26;7.70;99.90
46652;DHT22;32377;52.182;5.398;2023-12-22T03:21:52;7.50;1.00
46652;DHT22;32377;52.182;5.398;2023-12-22T03:24:17;7.30;1.00
46652;DHT22;32377;52.182;5.398;2023-12-22T03:26:48;7.30;1.00
46652;DHT22;32377;52.182;5.398;2023-12-22T03:29:14;7.30;1.00
46652;DHT22;32377;52.182;5.398;2023-12-22T03:31:40;7.40;1.00
46652;DHT22;32377;52.182;5.398;2023-12-22T03:34:06;7.50;1.00
46652;DHT22;32377;52.182;5.398;2023-12-22T03:36:32;7.40;1.00
46652;DHT22;32377;52.182;5.398;2023-12-22T03:38:58;7.30;2.30
46652;DHT22;32377;52.182;5.398;2023-12-22T03:41:23;7.00;99.90
46652;DHT22;32377;52.182;5.398;2023-12-22T03:43:49;6.70;99.90
46652;DHT22;32377;52.182;5.398;2023-12-22T03:46:14;6.60;1.00
46652;DHT22;32377;52.182;5.398;2023-12-22T03:48:40;6.50;65.70
46652;DHT22;32377;52.182;5.398;2023-12-22T03:51:06;6.50;99.90
46652;DHT22;32377;52.182;5.398;2023-12-22T03:53:31;6.50;99.90
46652;DHT22;32377;52.182;5.398;2023-12-22T03:55:57;6.50;99.90
46652;DHT22;32377;52.182;5.398;2023-12-22T03:58:23;6.50;99.90
46652;DHT22;32377;52.182;5.398;2023-12-22T04:00:48;6.60;99.90
46652;DHT22;32377;52.182;5.398;2023-12-22T04:03:14;6.70;99.90
46652;DHT22;32377;52.182;5.398;2023-12-22T04:05:39;6.70;99.90
46652;DHT22;32377;52.182;5.398;2023-12-22T04:08:05;6.80;99.90
46652;DHT22;32377;52.182;5.398;2023-12-22T04:10:31;6.80;99.90
46652;DHT22;32377;52.182;5.398;2023-12-22T04:12:57;6.80;99.90
46652;DHT22;32377;52.182;5.398;2023-12-22T04:15:22;6.80;99.90
46652;DHT22;32377;52.182;5.398;2023-12-22T04:17:48;6.90;99.90
46652;DHT22;32377;52.182;5.398;2023-12-22T04:20:14;6.80;1.00
46652;DHT22;32377;52.182;5.398;2023-12-22T04:22:40;6.80;1.00
46652;DHT22;32377;52.182;5.398;2023-12-22T04:25:06;6.90;1.00
46652;DHT22;32377;52.182;5.398;2023-12-22T04:27:31;6.90;1.00
46652;DHT22;32377;52.182;5.398;2023-12-22T04:29:57;6.90;1.00
46652;DHT22;32377;52.182;5.398;2023-12-22T04:32:23;6.80;1.00
46652;DHT22;32377;52.182;5.398;2023-12-22T04:34:48;6.90;1.00
46652;DHT22;32377;52.182;5.398;2023-12-22T04:37:14;6.90;1.00
46652;DHT22;32377;52.182;5.398;2023-12-22T04:39:40;7.00;1.00
46652;DHT22;32377;52.182;5.398;2023-12-22T04:42:05;7.00;1.00
46652;DHT22;32377;52.182;5.398;2023-12-22T04:44:31;6.90;1.00
46652;DHT22;32377;52.182;5.398;2023-12-22T04:46:57;6.90;1.00
46652;DHT22;32377;52.182;5.398;2023-12-22T04:49:22;7.00;1.00
46652;DHT22;32377;52.182;5.398;2023-12-22T04:51:48;7.00;1.00
46652;DHT22;32377;52.182;5.398;2023-12-22T04:54:13;6.90;1.00
46652;DHT22;32377;52.182;5.398;2023-12-22T04:56:39;6.90;1.00
46652;DHT22;32377;52.182;5.398;2023-12-22T04:59:04;6.90;1.00
46652;DHT22;32377;52.182;5.398;2023-12-22T05:01:30;6.90;1.00
46652;DHT22;32377;52.182;5.398;2023-12-22T05:03:55;6.80;10.50
46652;DHT22;32377;52.182;5.398;2023-12-22T05:06:21;6.80;59.00
46652;DHT22;32377;52.182;5.398;2023-12-22T05:08:47;6.80;99.90
46652;DHT22;32377;52.182;5.398;2023-12-22T05:11:12;6.80;99.90
46652;DHT22;32377;52.182;5.398;2023-12-22T05:13:38;6.80;99.90
46652;DHT22;32377;52.182;5.398;2023-12-22T05:16:04;6.70;99.90
46652;DHT22;32377;52.182;5.398;2023-12-22T05:18:30;6.70;99.90
46652;DHT22;32377;52.182;5.398;2023-12-22T05:20:55;6.70;99.90
46652;DHT22;32377;52.182;5.398;2023-12-22T05:23:21;6.70;99.90
46652;DHT22;32377;52.182;5.398;2023-12-22T05:25:47;6.80;99.90
46652;DHT22;32377;52.182;5.398;2023-12-22T05:28:12;6.90;99.90
46652;DHT22;32377;52.182;5.398;2023-12-22T05:30:38;7.00;99.90
46652;DHT22;32377;52.182;5.398;2023-12-22T05:33:04;7.10;99.90
46652;DHT22;32377;52.182;5.398;2023-12-22T05:35:29;7.20;99.90
46652;DHT22;32377;52.182;5.398;2023-12-22T05:37:55;7.40;99.90
46652;DHT22;32377;52.182;5.398;2023-12-22T05:40:20;7.70;99.90
46652;DHT22;32377;52.182;5.398;2023-12-22T05:42:46;7.80;42.40
46652;DHT22;32377;52.182;5.398;2023-12-22T05:45:13;7.90;99.90
46652;DHT22;32377;52.182;5.398;2023-12-22T05:47:39;8.10;99.90
46652;DHT22;32377;52.182;5.398;2023-12-22T05:50:05;8.20;17.30
46652;DHT22;32377;52.182;5.398;2023-12-22T05:52:31;8.20;1.00
46652;DHT22;32377;52.182;5.398;2023-12-22T05:54:56;8.30;99.90
46652;DHT22;32377;52.182;5.398;2023-12-22T05:57:22;8.20;99.90
46652;DHT22;32377;52.182;5.398;2023-12-22T05:59:47;8.40;99.90
46652;DHT22;32377;52.182;5.398;2023-12-22T06:02:13;8.40;99.90
46652;DHT22;32377;52.182;5.398;2023-12-22T06:04:38;8.40;99.90
46652;DHT22;32377;52.182;5.398;2023-12-22T06:07:05;8.40;99.90
46652;DHT22;32377;52.182;5.398;2023-12-22T06:09:31;8.40;99.90
46652;DHT22;32377;52.182;5.398;2023-12-22T06:11:56;8.50;99.90
46652;DHT22;32377;52.182;5.398;2023-12-22T06:14:23;8.50;99.90
46652;DHT22;32377;52.182;5.398;2023-12-22T06:16:48;8.50;99.90
46652;DHT22;32377;52.182;5.398;2023-12-22T06:19:14;8.60;99.90
46652;DHT22;32377;52.182;5.398;2023-12-22T06:21:40;8.50;99.90
46652;DHT22;32377;52.182;5.398;2023-12-22T06:24:06;8.60;99.90
46652;DHT22;32377;52.182;5.398;2023-12-22T06:26:33;8.70;99.90
46652;DHT22;32377;52.182;5.398;2023-12-22T06:28:58;8.70;99.90
46652;DHT22;32377;52.182;5.398;2023-12-22T06:31:25;8.70;99.90
46652;DHT22;32377;52.182;5.398;2023-12-22T06:33:51;8.80;99.90
46652;DHT22;32377;52.182;5.398;2023-12-22T06:36:24;8.90;79.20
46652;DHT22;32377;52.182;5.398;2023-12-22T06:38:51;9.10;13.50
46652;DHT22;32377;52.182;5.398;2023-12-22T06:41:30;9.10;8.00
46652;DHT22;32377;52.182;5.398;2023-12-22T06:43:59;9.00;21.10
46652;DHT22;32377;52.182;5.398;2023-12-22T06:46:28;9.00;10.60
46652;DHT22;32377;52.182;5.398;2023-12-22T06:48:55;9.00;18.80
46652;DHT22;32377;52.182;5.398;2023-12-22T06:51:25;9.10;1.80
46652;DHT22;32377;52.182;5.398;2023-12-22T06:53:52;9.10;10.70
46652;DHT22;32377;52.182;5.398;2023-12-22T06:56:19;9.10;4.40
46652;DHT22;32377;52.182;5.398;2023-12-22T06:58:46;9.20;3.80
46652;DHT22;32377;52.182;5.398;2023-12-22T07:01:30;9.20;8.30
46652;DHT22;32377;52.182;5.398;2023-12-22T07:03:58;9.20;16.80
46652;DHT22;32377;52.182;5.398;2023-12-22T07:06:29;9.20;1.00
46652;DHT22;32377;52.182;5.398;2023-12-22T07:11:48;9.20;14.90
46652;DHT22;32377;52.182;5.398;2023-12-22T07:14:15;9.30;13.10
46652;DHT22;32377;52.182;5.398;2023-12-22T07:16:41;9.30;12.20
46652;DHT22;32377;52.182;5.398;2023-12-22T07:19:10;9.30;5.60
46652;DHT22;32377;52.182;5.398;2023-12-22T07:21:38;9.30;7.40
46652;DHT22;32377;52.182;5.398;2023-12-22T07:24:05;9.30;21.00
46652;DHT22;32377;52.182;5.398;2023-12-22T07:26:30;9.40;1.00
46652;DHT22;32377;52.182;5.398;2023-12-22T07:28:56;9.40;26.50
46652;DHT22;32377;52.182;5.398;2023-12-22T07:31:22;9.40;30.70
46652;DHT22;32377;52.182;5.398;2023-12-22T07:33:47;9.40;42.60
46652;DHT22;32377;52.182;5.398;2023-12-22T07:36:13;9.40;72.40
46652;DHT22;32377;52.182;5.398;2023-12-22T07:38:39;9.40;76.50
46652;DHT22;32377;52.182;5.398;2023-12-22T07:41:05;9.50;75.50
46652;DHT22;32377;52.182;5.398;2023-12-22T07:43:31;9.50;70.40
46652;DHT22;32377;52.182;5.398;2023-12-22T07:45:56;9.50;82.90
46652;DHT22;32377;52.182;5.398;2023-12-22T07:48:22;9.50;96.00
46652;DHT22;32377;52.182;5.398;2023-12-22T07:50:47;9.40;99.90
46652;DHT22;32377;52.182;5.398;2023-12-22T07:53:13;9.30;99.90
46652;DHT22;32377;52.182;5.398;2023-12-22T07:55:38;9.10;99.90
46652;DHT22;32377;52.182;5.398;2023-12-22T07:58:05;8.90;99.90
46652;DHT22;32377;52.182;5.398;2023-12-22T08:00:30;8.70;1.00
46652;DHT22;32377;52.182;5.398;2023-12-22T08:02:56;8.70;99.90
46652;DHT22;32377;52.182;5.398;2023-12-22T08:05:22;8.60;99.90
46652;DHT22;32377;52.182;5.398;2023-12-22T08:07:47;8.60;99.90
46652;DHT22;32377;52.182;5.398;2023-12-22T08:10:13;8.60;1.00
46652;DHT22;32377;52.182;5.398;2023-12-22T08:12:38;8.60;29.40
46652;DHT22;32377;52.182;5.398;2023-12-22T08:15:05;8.60;99.90
46652;DHT22;32377;52.182;5.398;2023-12-22T08:17:31;8.60;99.90
46652;DHT22;32377;52.182;5.398;2023-12-22T08:19:57;8.60;99.90
46652;DHT22;32377;52.182;5.398;2023-12-22T08:22:22;8.60;99.90
46652;DHT22;32377;52.182;5.398;2023-12-22T08:24:49;8.70;99.90
46652;DHT22;32377;52.182;5.398;2023-12-22T08:27:14;8.80;99.90
46652;DHT22;32377;52.182;5.398;2023-12-22T08:29:40;8.80;99.90
46652;DHT22;32377;52.182;5.398;2023-12-22T08:32:06;8.90;99.90
46652;DHT22;32377;52.182;5.398;2023-12-22T08:34:32;8.80;99.90
46652;DHT22;32377;52.182;5.398;2023-12-22T08:36:57;8.90;99.90
46652;DHT22;32377;52.182;5.398;2023-12-22T08:39:23;8.90;99.90
46652;DHT22;32377;52.182;5.398;2023-12-22T08:41:52;8.90;99.90
46652;DHT22;32377;52.182;5.398;2023-12-22T08:44:18;8.90;99.90
46652;DHT22;32377;52.182;5.398;2023-12-22T08:46:44;8.90;99.90
46652;DHT22;32377;52.182;5.398;2023-12-22T08:49:09;8.90;99.90
46652;DHT22;32377;52.182;5.398;2023-12-22T08:51:35;9.00;99.90
46652;DHT22;32377;52.182;5.398;2023-12-22T08:54:01;9.00;99.90
46652;DHT22;32377;52.182;5.398;2023-12-22T08:56:26;9.10;99.90
46652;DHT22;32377;52.182;5.398;2023-12-22T08:58:53;9.20;99.90
46652;DHT22;32377;52.182;5.398;2023-12-22T09:01:20;9.20;99.90
46652;DHT22;32377;52.182;5.398;2023-12-22T09:03:49;9.20;99.90
46652;DHT22;32377;52.182;5.398;2023-12-22T09:06:15;9.30;99.90
46652;DHT22;32377;52.182;5.398;2023-12-22T09:08:41;9.30;99.90
46652;DHT22;32377;52.182;5.398;2023-12-22T09:11:07;9.40;99.90
46652;DHT22;32377;52.182;5.398;2023-12-22T09:13:33;9.40;99.90
46652;DHT22;32377;52.182;5.398;2023-12-22T09:16:01;9.40;99.90
46652;DHT22;32377;52.182;5.398;2023-12-22T09:18:31;9.40;99.90
46652;DHT22;32377;52.182;5.398;2023-12-22T09:20:57;9.40;99.90
46652;DHT22;32377;52.182;5.398;2023-12-22T09:23:23;9.50;99.90
46652;DHT22;32377;52.182;5.398;2023-12-22T09:25:49;9.50;99.90
46652;DHT22;32377;52.182;5.398;2023-12-22T09:28:15;9.40;99.90
46652;DHT22;32377;52.182;5.398;2023-12-22T09:30:40;9.40;99.90
46652;DHT22;32377;52.182;5.398;2023-12-22T09:33:10;9.30;99.90
46652;DHT22;32377;52.182;5.398;2023-12-22T09:35:36;9.20;99.90
46652;DHT22;32377;52.182;5.398;2023-12-22T09:38:02;9.20;99.90
46652;DHT22;32377;52.182;5.398;2023-12-22T09:40:28;9.20;99.90
46652;DHT22;32377;52.182;5.398;2023-12-22T09:42:57;9.10;99.90
46652;DHT22;32377;52.182;5.398;2023-12-22T09:45:24;9.10;99.90
46652;DHT22;32377;52.182;5.398;2023-12-22T09:47:50;9.10;99.90
46652;DHT22;32377;52.182;5.398;2023-12-22T09:50:17;9.10;99.90
46652;DHT22;32377;52.182;5.398;2023-12-22T09:52:43;9.10;99.90
46652;DHT22;32377;52.182;5.398;2023-12-22T09:55:10;9.20;99.90
46652;DHT22;32377;52.182;5.398;2023-12-22T09:57:37;9.20;99.90
46652;DHT22;32377;52.182;5.398;2023-12-22T10:00:08;9.20;99.90
46652;DHT22;32377;52.182;5.398;2023-12-22T10:02:34;9.30;99.90
46652;DHT22;32377;52.182;5.398;2023-12-22T10:05:01;9.40;99.90
46652;DHT22;32377;52.182;5.398;2023-12-22T10:07:28;9.50;99.90
46652;DHT22;32377;52.182;5.398;2023-12-22T10:09:54;9.60;99.90
46652;DHT22;32377;52.182;5.398;2023-12-22T10:12:22;9.80;99.90
46652;DHT22;32377;52.182;5.398;2023-12-22T10:14:48;9.90;99.90
46652;DHT22;32377;52.182;5.398;2023-12-22T10:17:15;10.00;99.90
46652;DHT22;32377;52.182;5.398;2023-12-22T10:19:42;10.10;99.90
46652;DHT22;32377;52.182;5.398;2023-12-22T10:22:08;10.10;99.90
46652;DHT22;32377;52.182;5.398;2023-12-22T10:24:43;10.20;99.90
46652;DHT22;32377;52.182;5.398;2023-12-22T10:27:11;10.20;99.90
46652;DHT22;32377;52.182;5.398;2023-12-22T10:29:37;10.30;99.90
46652;DHT22;32377;52.182;5.398;2023-12-22T10:32:03;10.40;99.90
46652;DHT22;32377;52.182;5.398;2023-12-22T10:34:30;10.40;99.90
46652;DHT22;32377;52.182;5.398;2023-12-22T10:36:56;10.40;99.90
46652;DHT22;32377;52.182;5.398;2023-12-22T10:39:22;10.30;99.90
46652;DHT22;32377;52.182;5.398;2023-12-22T10:41:51;10.40;99.90
46652;DHT22;32377;52.182;5.398;2023-12-22T10:44:17;10.40;99.90
46652;DHT22;32377;52.182;5.398;2023-12-22T10:46:43;10.40;99.90
46652;DHT22;32377;52.182;5.398;2023-12-22T10:49:09;10.30;99.90
46652;DHT22;32377;52.182;5.398;2023-12-22T10:51:34;10.30;99.90
46652;DHT22;32377;52.182;5.398;2023-12-22T10:54:00;10.30;99.90
46652;DHT22;32377;52.182;5.398;2023-12-22T10:56:25;10.30;99.90
46652;DHT22;32377;52.182;5.398;2023-12-22T10:58:53;10.30;99.90
46652;DHT22;32377;52.182;5.398;2023-12-22T11:01:21;10.30;99.90
46652;DHT22;32377;52.182;5.398;2023-12-22T11:03:50;10.40;99.90
46652;DHT22;32377;52.182;5.398;2023-12-22T11:06:17;10.40;99.90
46652;DHT22;32377;52.182;5.398;2023-12-22T11:08:47;10.40;99.90
46652;DHT22;32377;52.182;5.398;2023-12-22T11:11:27;10.40;99.90
46652;DHT22;32377;52.182;5.398;2023-12-22T11:13:56;10.40;99.90
46652;DHT22;32377;52.182;5.398;2023-12-22T11:16:24;10.40;99.90
46652;DHT22;32377;52.182;5.398;2023-12-22T11:18:52;10.40;99.90
46652;DHT22;32377;52.182;5.398;2023-12-22T11:21:20;10.50;99.90
46652;DHT22;32377;52.182;5.398;2023-12-22T11:23:47;10.60;99.90
46652;DHT22;32377;52.182;5.398;2023-12-22T11:26:14;10.60;57.50
46652;DHT22;32377;52.182;5.398;2023-12-22T11:28:41;10.60;1.00
46652;DHT22;32377;52.182;5.398;2023-12-22T11:31:10;10.60;1.00
46652;DHT22;32377;52.182;5.398;2023-12-22T11:33:36;10.60;1.00
46652;DHT22;32377;52.182;5.398;2023-12-22T11:36:05;10.60;1.00
46652;DHT22;32377;52.182;5.398;2023-12-22T11:38:31;10.50;31.00
46652;DHT22;32377;52.182;5.398;2023-12-22T11:40:58;10.50;87.30
46652;DHT22;32377;52.182;5.398;2023-12-22T11:43:25;10.60;90.70
46652;DHT22;32377;52.182;5.398;2023-12-22T11:45:51;10.70;1.00
46652;DHT22;32377;52.182;5.398;2023-12-22T11:48:17;10.70;1.00
46652;DHT22;32377;52.182;5.398;2023-12-22T11:50:43;10.60;1.00
46652;DHT22;32377;52.182;5.398;2023-12-22T11:53:38;10.60;1.00
46652;DHT22;32377;52.182;5.398;2023-12-22T11:56:05;10.50;99.90
46652;DHT22;32377;52.182;5.398;2023-12-22T11:58:33;10.50;99.90
46652;DHT22;32377;52.182;5.398;2023-12-22T12:01:02;10.60;1.00
46652;DHT22;32377;52.182;5.398;2023-12-22T12:03:30;10.70;1.00
46652;DHT22;32377;52.182;5.398;2023-12-22T12:08:52;10.70;99.90
46652;DHT22;32377;52.182;5.398;2023-12-22T12:11:19;10.60;99.90
46652;DHT22;32377;52.182;5.398;2023-12-22T12:13:46;10.60;99.90
46652;DHT22;32377;52.182;5.398;2023-12-22T12:16:13;10.70;1.00
46652;DHT22;32377;52.182;5.398;2023-12-22T12:18:40;10.70;1.00
46652;DHT22;32377;52.182;5.398;2023-12-22T12:21:10;10.70;1.00
46652;DHT22;32377;52.182;5.398;2023-12-22T12:23:36;10.80;1.00
46652;DHT22;32377;52.182;5.398;2023-12-22T12:26:02;10.90;99.90
46652;DHT22;32377;52.182;5.398;2023-12-22T12:28:30;10.80;99.90
46652;DHT22;32377;52.182;5.398;2023-12-22T12:31:04;10.90;99.90
46652;DHT22;32377;52.182;5.398;2023-12-22T12:33:30;10.90;99.90
46652;DHT22;32377;52.182;5.398;2023-12-22T12:35:57;11.10;97.70
46652;DHT22;32377;52.182;5.398;2023-12-22T12:41:00;11.10;10.90
46652;DHT22;32377;52.182;5.398;2023-12-22T12:43:29;11.20;1.00
46652;DHT22;32377;52.182;5.398;2023-12-22T12:45:54;11.20;1.00
46652;DHT22;32377;52.182;5.398;2023-12-22T12:48:21;11.20;99.90
46652;DHT22;32377;52.182;5.398;2023-12-22T12:50:47;11.30;99.90
46652;DHT22;32377;52.182;5.398;2023-12-22T12:53:13;11.30;99.90
46652;DHT22;32377;52.182;5.398;2023-12-22T12:55:39;11.30;99.90
46652;DHT22;32377;52.182;5.398;2023-12-22T12:58:04;11.40;99.90
46652;DHT22;32377;52.182;5.398;2023-12-22T13:00:32;11.50;99.90
46652;DHT22;32377;52.182;5.398;2023-12-22T13:05:30;11.50;99.90
46652;DHT22;32377;52.182;5.398;2023-12-22T13:08:11;11.50;99.90
46652;DHT22;32377;52.182;5.398;2023-12-22T13:10:37;11.40;99.90
46652;DHT22;32377;52.182;5.398;2023-12-22T13:13:03;11.40;99.90
46652;DHT22;32377;52.182;5.398;2023-12-22T13:15:29;11.40;99.90
46652;DHT22;32377;52.182;5.398;2023-12-22T13:17:55;11.40;99.90
46652;DHT22;32377;52.182;5.398;2023-12-22T13:20:22;11.40;99.90
46652;DHT22;32377;52.182;5.398;2023-12-22T13:22:48;11.50;81.80
46652;DHT22;32377;52.182;5.398;2023-12-22T13:25:14;11.50;99.90
46652;DHT22;32377;52.182;5.398;2023-12-22T13:27:51;11.40;99.90
46652;DHT22;32377;52.182;5.398;2023-12-22T13:30:33;11.50;99.90
46652;DHT22;32377;52.182;5.398;2023-12-22T13:32:59;11.50;83.20
46652;DHT22;32377;52.182;5.398;2023-12-22T13:35:24;11.50;66.50
46652;DHT22;32377;52.182;5.398;2023-12-22T13:37:51;11.60;43.60
46652;DHT22;32377;52.182;5.398;2023-12-22T13:40:17;11.50;30.70
46652;DHT22;32377;52.182;5.398;2023-12-22T13:42:42;11.40;97.90
46652;DHT22;32377;52.182;5.398;2023-12-22T13:45:11;11.30;99.90
46652;DHT22;32377;52.182;5.398;2023-12-22T13:47:43;11.30;99.90
46652;DHT22;32377;52.182;5.398;2023-12-22T13:50:15;11.30;99.90
46652;DHT22;32377;52.182;5.398;2023-12-22T13:52:41;11.30;99.90
46652;DHT22;32377;52.182;5.398;2023-12-22T13:55:13;11.50;99.90
46652;DHT22;32377;52.182;5.398;2023-12-22T13:57:39;11.50;86.60
46652;DHT22;32377;52.182;5.398;2023-12-22T14:02:46;11.30;99.90
46652;DHT22;32377;52.182;5.398;2023-12-22T14:05:12;11.20;99.90
46652;DHT22;32377;52.182;5.398;2023-12-22T14:07:37;11.00;99.90
46652;DHT22;32377;52.182;5.398;2023-12-22T14:10:10;10.80;44.60
46652;DHT22;32377;52.182;5.398;2023-12-22T14:12:36;10.80;99.90
46652;DHT22;32377;52.182;5.398;2023-12-22T14:15:09;10.80;99.90
46652;DHT22;32377;52.182;5.398;2023-12-22T14:17:36;10.90;99.90
46652;DHT22;32377;52.182;5.398;2023-12-22T14:20:02;10.90;99.90
46652;DHT22;32377;52.182;5.398;2023-12-22T14:22:29;10.80;99.90
46652;DHT22;32377;52.182;5.398;2023-12-22T14:24:55;10.90;99.90
46652;DHT22;32377;52.182;5.398;2023-12-22T14:27:23;10.90;99.90
46652;DHT22;32377;52.182;5.398;2023-12-22T14:29:48;10.90;99.90
46652;DHT22;32377;52.182;5.398;2023-12-22T14:32:14;10.90;99.90
46652;DHT22;32377;52.182;5.398;2023-12-22T14:34:46;10.90;99.90
46652;DHT22;32377;52.182;5.398;2023-12-22T14:37:12;10.90;99.90
46652;DHT22;32377;52.182;5.398;2023-12-22T14:39:38;10.90;99.90
46652;DHT22;32377;52.182;5.398;2023-12-22T14:42:03;10.90;99.90
46652;DHT22;32377;52.182;5.398;2023-12-22T14:44:29;10.80;99.90
46652;DHT22;32377;52.182;5.398;2023-12-22T14:46:55;10.80;99.90
46652;DHT22;32377;52.182;5.398;2023-12-22T14:49:21;10.90;99.90
46652;DHT22;32377;52.182;5.398;2023-12-22T14:51:47;10.90;99.90
46652;DHT22;32377;52.182;5.398;2023-12-22T14:54:17;10.90;99.90
46652;DHT22;32377;52.182;5.398;2023-12-22T14:56:43;10.90;99.90
46652;DHT22;32377;52.182;5.398;2023-12-22T14:59:09;10.80;99.90
46652;DHT22;32377;52.182;5.398;2023-12-22T15:01:38;10.80;99.90
46652;DHT22;32377;52.182;5.398;2023-12-22T15:04:07;10.80;99.90
46652;DHT22;32377;52.182;5.398;2023-12-22T15:06:33;10.80;99.90
46652;DHT22;32377;52.182;5.398;2023-12-22T15:09:01;10.80;99.90
46652;DHT22;32377;52.182;5.398;2023-12-22T15:11:26;10.90;99.90
46652;DHT22;32377;52.182;5.398;2023-12-22T15:13:52;10.80;99.90
46652;DHT22;32377;52.182;5.398;2023-12-22T15:16:18;10.90;99.90
46652;DHT22;32377;52.182;5.398;2023-12-22T15:18:43;10.90;99.90
46652;DHT22;32377;52.182;5.398;2023-12-22T15:21:09;10.90;99.90
46652;DHT22;32377;52.182;5.398;2023-12-22T15:23:35;10.90;99.90
46652;DHT22;32377;52.182;5.398;2023-12-22T15:26:00;11.00;96.70
46652;DHT22;32377;52.182;5.398;2023-12-22T15:28:26;11.00;50.90
46652;DHT22;32377;52.182;5.398;2023-12-22T15:30:52;11.00;1.00
46652;DHT22;32377;52.182;5.398;2023-12-22T15:33:18;11.00;1.00
46652;DHT22;32377;52.182;5.398;2023-12-22T15:35:43;11.10;99.90
46652;DHT22;32377;52.182;5.398;2023-12-22T15:38:09;11.10;99.90
46652;DHT22;32377;52.182;5.398;2023-12-22T15:40:36;11.20;99.90
46652;DHT22;32377;52.182;5.398;2023-12-22T15:43:01;11.30;99.90
46652;DHT22;32377;52.182;5.398;2023-12-22T15:45:27;11.30;99.90
46652;DHT22;32377;52.182;5.398;2023-12-22T15:47:52;11.30;99.90
46652;DHT22;32377;52.182;5.398;2023-12-22T15:50:19;11.30;90.50
46652;DHT22;32377;52.182;5.398;2023-12-22T15:52:45;11.30;71.30
46652;DHT22;32377;52.182;5.398;2023-12-22T15:55:10;11.30;73.60
46652;DHT22;32377;52.182;5.398;2023-12-22T15:57:39;11.30;99.90